Ottoman Nobility — TCDA2 — position and weather

sailwx.info

Track history (hours):
 
Tides and Currents Weather Stations Pressure Air Temp Water Temp Dewpoint Dewpoint Depression Visibility Wind Speed Wind Dir Waves Ship Positions

Ottoman Nobility

Last reported at 2014-Oct-23 22:30 UTC. Time now 2014-Oct-25 20:48 UTC.
Position N 37°34' E 023°42'.

Length 269 m; draft 8.6 m.

Type: Ship (hazmat cat B). MMSI: 271000773.

Date/timePositionNaut miles runAvg speedWind from/ knotsBaromVisibWave heightAir tempDewpointWater temp
2014-Oct-23 22:30N 37°34' E 023°42'1212.5
2014-Oct-23 21:33N 37°45' E 023°39'8 8.3
2014-Oct-23 20:34N 37°50' E 023°31'0 0.2
2014-Oct-23 19:33N 37°50' E 023°31'0 0.0
2014-Oct-23 18:33N 37°50' E 023°31'0 0.1
2014-Oct-23 17:33N 37°50' E 023°31'0 0.0
2014-Oct-23 16:33N 37°50' E 023°31'0 0.0
2014-Oct-23 15:33N 37°50' E 023°31'0 0.0
2014-Oct-23 14:33N 37°50' E 023°31'0 0.2
2014-Oct-23 13:33N 37°50' E 023°31'0 0.2
2014-Oct-23 12:33N 37°50' E 023°31'0 0.1
2014-Oct-23 11:33N 37°50' E 023°31'4 3.8
2014-Oct-23 10:33N 37°51' E 023°36'8 8.1
2014-Oct-23 09:33N 37°45' E 023°43'1510.7
2014-Oct-23 08:10N 37°35' E 023°57'812.7
2014-Oct-23 07:33N 37°35' E 024°07'1311.5
2014-Oct-23 06:23N 37°45' E 024°18'1012.1
2014-Oct-23 05:33N 37°50' E 024°30'2311.1
2014-Oct-23 03:28N 38°09' E 024°47'2211.4
2014-Oct-23 01:31N 38°25' E 025°07'  
2014-Oct-17 15:26N 38°12' E 025°46'1112.0
2014-Oct-17 14:31N 38°01' E 025°47'3110.5
2014-Oct-17 11:33N 37°30' E 025°54'1312.6
2014-Oct-17 10:33N 37°18' E 025°60'1212.3
2014-Oct-17 09:34N 37°07' E 026°06'1312.5
2014-Oct-17 08:33N 36°56' E 026°13'1312.7
2014-Oct-17 07:33N 36°47' E 026°24'1312.8
2014-Oct-17 06:31N 36°37' E 026°35'1212.3
2014-Oct-17 05:33N 36°28' E 026°44'1212.1
2014-Oct-17 04:34N 36°19' E 026°54'1212.2
2014-Oct-17 03:34N 36°09' E 027°04'1212.1
2014-Oct-17 02:34N 36°00' E 027°14'1212.2
2014-Oct-17 01:33N 35°51' E 027°24'1212.5
2014-Oct-17 00:34N 35°42' E 027°35'1512.5
2014-Oct-16 23:23N 35°31' E 027°47'2312.4
2014-Oct-16 21:32N 35°14' E 028°06'1412.0
2014-Oct-16 20:24N 35°04' E 028°17'  
Track history (hours):
 
Tides and Currents Weather Stations Pressure Air Temp Water Temp Dewpoint Dewpoint Depression Visibility Wind Speed Wind Dir Waves Ship Positions

Ottoman Nobility

Last reported at 2014-Oct-23 22:30 UTC. Time now 2014-Oct-25 20:48 UTC.
Position N 37°34' E 023°42'.

Length 269 m; draft 8.6 m.

Type: Ship (hazmat cat B). MMSI: 271000773.

Date/timePositionNaut miles runAvg speedWind from/ knotsBaromVisibWave heightAir tempDewpointWater temp
2014-Oct-23 22:30N 37°34' E 023°42'1212.5
2014-Oct-23 21:33N 37°45' E 023°39'8 8.3
2014-Oct-23 20:34N 37°50' E 023°31'0 0.2
2014-Oct-23 19:33N 37°50' E 023°31'0 0.0
2014-Oct-23 18:33N 37°50' E 023°31'0 0.1
2014-Oct-23 17:33N 37°50' E 023°31'0 0.0
2014-Oct-23 16:33N 37°50' E 023°31'0 0.0
2014-Oct-23 15:33N 37°50' E 023°31'0 0.0
2014-Oct-23 14:33N 37°50' E 023°31'0 0.2
2014-Oct-23 13:33N 37°50' E 023°31'0 0.2
2014-Oct-23 12:33N 37°50' E 023°31'0 0.1
2014-Oct-23 11:33N 37°50' E 023°31'4 3.8
2014-Oct-23 10:33N 37°51' E 023°36'8 8.1
2014-Oct-23 09:33N 37°45' E 023°43'1510.7
2014-Oct-23 08:10N 37°35' E 023°57'812.7
2014-Oct-23 07:33N 37°35' E 024°07'1311.5
2014-Oct-23 06:23N 37°45' E 024°18'1012.1
2014-Oct-23 05:33N 37°50' E 024°30'2311.1
2014-Oct-23 03:28N 38°09' E 024°47'2211.4
2014-Oct-23 01:31N 38°25' E 025°07'  
2014-Oct-17 15:26N 38°12' E 025°46'1112.0
2014-Oct-17 14:31N 38°01' E 025°47'3110.5
2014-Oct-17 11:33N 37°30' E 025°54'1312.6
2014-Oct-17 10:33N 37°18' E 025°60'1212.3
2014-Oct-17 09:34N 37°07' E 026°06'1312.5
2014-Oct-17 08:33N 36°56' E 026°13'1312.7
2014-Oct-17 07:33N 36°47' E 026°24'1312.8
2014-Oct-17 06:31N 36°37' E 026°35'1212.3
2014-Oct-17 05:33N 36°28' E 026°44'1212.1
2014-Oct-17 04:34N 36°19' E 026°54'1212.2
2014-Oct-17 03:34N 36°09' E 027°04'1212.1
2014-Oct-17 02:34N 36°00' E 027°14'1212.2
2014-Oct-17 01:33N 35°51' E 027°24'1212.5
2014-Oct-17 00:34N 35°42' E 027°35'1512.5
2014-Oct-16 23:23N 35°31' E 027°47'2312.4
2014-Oct-16 21:32N 35°14' E 028°06'1412.0
2014-Oct-16 20:24N 35°04' E 028°17'  

Dump ship's entire track history